Time;durP1;ratioP1;P1;durP2;ratioP2;P2;SDS_P1;SDS_P2;PMS_P1;PMS_P2;Temp;Humidity;BMP_temperature;BMP_pressure;BME280_temperature;BME280_humidity;BME280_pressure;Samples;Min_cycle;Max_cycle;Signal;HPM_P1;HPM_P2
2023/05/02 00:00:53;;;;;;;25.73;18.57;;;;;;;;;;5229181;28;20040;-74
2023/05/02 00:03:25;;;;;;;22.50;18.77;;;;;;;;;;5228497;28;20075;-76
2023/05/02 00:05:56;;;;;;;23.50;18.20;;;;;;;;;;5226490;28;20017;-75
2023/05/02 00:08:27;;;;;;;24.23;17.63;;;;;;;;;;5227126;28;20056;-74
2023/05/02 00:10:58;;;;;;;25.60;19.67;;;;;;;;;;5227776;28;20104;-74
2023/05/02 00:13:29;;;;;;;20.70;18.03;;;;;;;;;;5228276;28;20025;-75
2023/05/02 00:16:01;;;;;;;22.03;18.63;;;;;;;;;;5227417;28;20141;-75
2023/05/02 00:18:32;;;;;;;24.00;20.23;;;;;;;;;;5227963;28;20018;-74
2023/05/02 00:21:03;;;;;;;23.50;19.30;;;;;;;;;;5227748;28;20066;-73
2023/05/02 00:23:34;;;;;;;24.67;19.47;;;;;;;;;;5228159;28;20017;-75
2023/05/02 00:26:09;;;;;;;25.50;19.83;;;;;;;;;;5226368;28;20205;-75
2023/05/02 00:28:40;;;;;;;;;;;;;;;;;;5228146;28;20104;-76
2023/05/02 00:31:11;;;;;;;25.77;20.27;;;;;;;;;;5227585;28;20432;-75
2023/05/02 00:33:42;;;;;;;22.20;19.37;;;;;;;;;;5227897;28;20124;-76
2023/05/02 00:36:14;;;;;;;25.90;20.53;;;;;;;;;;5227430;28;20027;-76
2023/05/02 00:38:45;;;;;;;26.67;20.93;;;;;;;;;;5227740;28;20563;-76
2023/05/02 00:41:17;;;;;;;25.03;20.63;;;;;;;;;;5227327;28;20025;-75
2023/05/02 00:43:48;;;;;;;26.07;19.63;;;;;;;;;;5228521;28;20028;-76
2023/05/02 00:46:19;;;;;;;27.33;18.50;;;;;;;;;;5227462;28;20773;-75
2023/05/02 00:48:51;;;;;;;27.43;20.13;;;;;;;;;;5226857;28;20461;-75
2023/05/02 00:51:22;;;;;;;28.20;20.47;;;;;;;;;;5226178;27;20025;-76
2023/05/02 00:53:53;;;;;;;20.93;18.50;;;;;;;;;;5227970;28;20024;-76
2023/05/02 00:56:25;;;;;;;20.80;17.53;;;;;;;;;;5227702;28;20033;-76
2023/05/02 00:58:57;;;;;;;20.37;16.40;;;;;;;;;;5227331;28;20499;-76
2023/05/02 01:01:28;;;;;;;23.27;16.83;;;;;;;;;;5227633;28;20026;-76
2023/05/02 01:04:00;;;;;;;21.17;16.93;;;;;;;;;;5227033;28;20021;-76
2023/05/02 01:06:38;;;;;;;24.20;18.10;;;;;;;;;;5226796;28;20020;-75
2023/05/02 01:09:28;;;;;;;20.13;16.13;;;;;;;;;;5227127;28;20018;-75
2023/05/02 01:12:05;;;;;;;19.97;16.03;;;;;;;;;;5227540;28;20442;-75
2023/05/02 01:14:40;;;;;;;19.10;16.00;;;;;;;;;;5227228;28;20380;-74
2023/05/02 01:17:13;;;;;;;22.20;15.90;;;;;;;;;;5227516;28;20041;-75
2023/05/02 01:19:51;;;;;;;17.50;14.40;;;;;;;;;;5227729;28;20020;-74
2023/05/02 01:22:24;;;;;;;21.27;14.47;;;;;;;;;;5226621;28;20109;-75
2023/05/02 01:25:14;;;;;;;16.00;13.43;;;;;;;;;;5226027;28;20480;-75
2023/05/02 01:27:48;;;;;;;13.37;11.00;;;;;;;;;;5226268;28;20461;-75
2023/05/02 01:30:20;;;;;;;13.30;10.10;;;;;;;;;;5227079;28;20039;-74
2023/05/02 01:32:52;;;;;;;12.50;10.10;;;;;;;;;;5226749;28;20538;-75
2023/05/02 01:35:25;;;;;;;14.23;10.27;;;;;;;;;;5224729;28;20097;-75
2023/05/02 01:37:57;;;;;;;14.20;10.23;;;;;;;;;;5226610;28;20021;-75
2023/05/02 01:40:28;;;;;;;14.00;9.60;;;;;;;;;;5225554;28;20384;-75
2023/05/02 01:43:03;;;;;;;13.23;9.77;;;;;;;;;;5225897;28;20018;-76
2023/05/02 01:45:34;;;;;;;;;;;;;;;;;;5227120;28;20017;-75
2023/05/02 01:48:07;;;;;;;12.77;9.40;;;;;;;;;;5227331;28;19932;-75
2023/05/02 01:50:40;;;;;;;13.07;10.30;;;;;;;;;;5225663;28;20147;-75
2023/05/02 01:53:13;;;;;;;14.60;10.20;;;;;;;;;;5226708;28;20021;-75
2023/05/02 01:55:45;;;;;;;15.10;10.40;;;;;;;;;;5225940;28;20022;-74
2023/05/02 01:58:17;;;;;;;13.97;10.03;;;;;;;;;;5226492;28;20078;-75
2023/05/02 02:00:49;;;;;;;15.73;10.87;;;;;;;;;;5224823;28;20479;-75
2023/05/02 02:03:21;;;;;;;14.23;10.30;;;;;;;;;;5226171;28;20104;-75
2023/05/02 02:05:54;;;;;;;11.83;9.47;;;;;;;;;;5224518;28;20504;-75
2023/05/02 02:08:25;;;;;;;14.13;10.23;;;;;;;;;;5226486;28;20045;-75
2023/05/02 02:10:57;;;;;;;13.80;10.53;;;;;;;;;;5225200;28;20048;-74
2023/05/02 02:13:32;;;;;;;14.83;10.07;;;;;;;;;;5226645;28;20578;-74
2023/05/02 02:16:05;;;;;;;17.60;10.87;;;;;;;;;;5225947;28;20376;-76
2023/05/02 02:18:38;;;;;;;15.97;10.47;;;;;;;;;;5226347;28;20016;-76
2023/05/02 02:21:10;;;;;;;14.00;11.47;;;;;;;;;;5242276;28;20025;-76
2023/05/02 02:23:42;;;;;;;12.80;10.03;;;;;;;;;;5245389;28;20021;-75
2023/05/02 02:26:14;;;;;;;15.13;10.67;;;;;;;;;;5246638;28;20331;-76
2023/05/02 02:28:45;;;;;;;14.90;11.23;;;;;;;;;;5245759;27;20085;-75
2023/05/02 02:31:16;;;;;;;16.87;11.83;;;;;;;;;;5245826;28;20425;-74
2023/05/02 02:33:47;;;;;;;16.20;11.10;;;;;;;;;;5247000;28;20496;-75
2023/05/02 02:36:23;;;;;;;14.40;10.93;;;;;;;;;;5245256;28;20032;-75
2023/05/02 02:39:17;;;;;;;17.10;12.33;;;;;;;;;;5247260;28;20021;-75
2023/05/02 02:41:54;;;;;;;16.00;12.02;;;;;;;;;;5264969;28;20033;-75
2023/05/02 02:44:55;;;;;;;15.20;11.30;;;;;;;;;;5246879;28;20025;-75
2023/05/02 02:47:31;;;;;;;14.03;11.50;;;;;;;;;;5281995;28;20067;-75
2023/05/02 02:50:28;;;;;;;15.50;11.63;;;;;;;;;;5245756;28;20035;-76
2023/05/02 02:52:59;;;;;;;13.50;11.17;;;;;;;;;;5261302;28;20115;-75
2023/05/02 02:55:33;;;;;;;15.10;11.27;;;;;;;;;;5229271;28;20097;-75
2023/05/02 02:58:13;;;;;;;16.42;10.63;;;;;;;;;;5226543;28;20354;-75
2023/05/02 03:00:45;;;;;;;14.37;10.50;;;;;;;;;;5224702;28;20120;-75
2023/05/02 03:03:17;;;;;;;12.40;10.53;;;;;;;;;;5225864;28;20116;-75
2023/05/02 03:05:49;;;;;;;12.80;9.23;;;;;;;;;;5225345;28;20025;-74
2023/05/02 03:08:20;;;;;;;11.47;9.40;;;;;;;;;;5225527;28;20343;-75
2023/05/02 03:10:52;;;;;;;13.63;11.00;;;;;;;;;;5225006;28;20213;-75
2023/05/02 03:13:23;;;;;;;16.63;9.07;;;;;;;;;;5225257;28;20051;-74
2023/05/02 03:16:03;;;;;;;12.50;9.33;;;;;;;;;;5226168;28;20025;-74
2023/05/02 03:18:34;;;;;;;13.10;9.17;;;;;;;;;;5225537;28;20029;-75
2023/05/02 03:21:05;;;;;;;14.13;9.50;;;;;;;;;;5224643;28;20017;-74
2023/05/02 03:23:37;;;;;;;14.23;10.10;;;;;;;;;;5225604;28;20021;-74
2023/05/02 03:26:08;;;;;;;14.90;9.63;;;;;;;;;;5225568;28;20033;-76
2023/05/02 03:28:39;;;;;;;14.13;10.30;;;;;;;;;;5228831;28;20101;-75
2023/05/02 03:31:11;;;;;;;13.07;9.47;;;;;;;;;;5229216;28;20032;-75
2023/05/02 03:33:42;;;;;;;12.80;9.57;;;;;;;;;;5228863;28;20128;-75
2023/05/02 03:36:15;;;;;;;12.83;9.87;;;;;;;;;;5228546;28;20026;-75
2023/05/02 03:38:46;;;;;;;13.30;9.67;;;;;;;;;;5228877;28;20025;-75
2023/05/02 03:41:17;;;;;;;14.47;8.97;;;;;;;;;;5228930;28;20620;-75
2023/05/02 03:43:48;;;;;;;13.23;9.00;;;;;;;;;;5229215;28;20556;-75
2023/05/02 03:46:19;;;;;;;17.87;9.00;;;;;;;;;;5226738;28;20372;-75
2023/05/02 03:48:51;;;;;;;15.80;8.63;;;;;;;;;;5228964;28;20082;-75
2023/05/02 03:51:22;;;;;;;14.87;10.10;;;;;;;;;;5228006;28;20310;-75
2023/05/02 03:53:53;;;;;;;15.73;8.83;;;;;;;;;;5227295;28;20469;-75
2023/05/02 03:56:24;;;;;;;13.30;7.63;;;;;;;;;;5228985;28;20036;-75
2023/05/02 03:58:56;;;;;;;11.10;7.20;;;;;;;;;;5228911;28;20022;-75
2023/05/02 04:01:28;;;;;;;10.67;7.10;;;;;;;;;;5228626;28;20021;-75
2023/05/02 04:03:59;;;;;;;12.30;6.73;;;;;;;;;;5228755;28;20105;-74
2023/05/02 04:06:31;;;;;;;14.43;6.80;;;;;;;;;;5226101;28;20019;-74
2023/05/02 04:09:02;;;;;;;11.90;5.70;;;;;;;;;;5228586;28;20496;-74
2023/05/02 04:11:34;;;;;;;13.93;6.77;;;;;;;;;;5228094;28;20021;-74
2023/05/02 04:14:05;;;;;;;12.90;5.63;;;;;;;;;;5228623;28;20029;-75
2023/05/02 04:16:36;;;;;;;14.33;5.13;;;;;;;;;;5228086;28;20400;-76
2023/05/02 04:19:08;;;;;;;11.70;5.27;;;;;;;;;;5228403;28;20018;-76
2023/05/02 04:21:39;;;;;;;15.30;5.17;;;;;;;;;;5227298;28;20500;-74
2023/05/02 04:24:10;;;;;;;9.97;4.63;;;;;;;;;;5226688;28;20382;-74
2023/05/02 04:26:41;;;;;;;15.37;5.00;;;;;;;;;;5226654;28;20517;-74
2023/05/02 04:29:13;;;;;;;14.20;4.03;;;;;;;;;;5228008;28;20105;-76
2023/05/02 04:31:44;;;;;;;14.57;5.27;;;;;;;;;;5227850;28;20312;-74
2023/05/02 04:34:15;;;;;;;13.33;3.47;;;;;;;;;;5227669;28;20118;-74
2023/05/02 04:36:47;;;;;;;8.10;2.47;;;;;;;;;;5228284;28;20060;-74
2023/05/02 04:39:18;;;;;;;7.30;2.43;;;;;;;;;;5226836;28;20472;-74
2023/05/02 04:41:49;;;;;;;11.73;2.40;;;;;;;;;;5228300;28;20032;-74
2023/05/02 04:44:20;;;;;;;7.97;2.20;;;;;;;;;;5227863;28;20477;-76
2023/05/02 04:46:52;;;;;;;6.87;2.70;;;;;;;;;;5227066;28;20022;-75
2023/05/02 04:49:23;;;;;;;5.20;1.23;;;;;;;;;;5227365;28;20098;-74
2023/05/02 04:51:54;;;;;;;6.93;1.77;;;;;;;;;;5226487;28;20025;-75
2023/05/02 04:54:26;;;;;;;5.30;1.70;;;;;;;;;;5227879;28;20031;-75
2023/05/02 04:56:58;;;;;;;5.27;1.70;;;;;;;;;;5227497;28;20025;-75
2023/05/02 04:59:29;;;;;;;9.00;2.23;;;;;;;;;;5227189;28;20804;-75
2023/05/02 05:02:01;;;;;;;6.07;2.10;;;;;;;;;;5227263;28;20025;-74
2023/05/02 05:04:32;;;;;;;10.00;1.73;;;;;;;;;;5226355;28;20029;-75
2023/05/02 05:07:03;;;;;;;6.57;1.73;;;;;;;;;;5227801;28;20070;-74
2023/05/02 05:09:35;;;;;;;5.60;2.17;;;;;;;;;;5227274;28;20516;-74
2023/05/02 05:12:06;;;;;;;5.23;1.77;;;;;;;;;;5227119;28;20025;-75
2023/05/02 05:14:37;;;;;;;7.13;1.87;;;;;;;;;;5227223;28;20021;-75
2023/05/02 05:17:09;;;;;;;7.93;2.03;;;;;;;;;;5226445;28;20033;-75
2023/05/02 05:19:40;;;;;;;6.20;1.70;;;;;;;;;;5226030;28;20029;-75
2023/05/02 05:22:11;;;;;;;6.20;1.70;;;;;;;;;;5227198;28;20048;-75
2023/05/02 05:24:49;;;;;;;7.30;1.93;;;;;;;;;;5226916;28;20393;-75
2023/05/02 05:27:20;;;;;;;9.80;2.70;;;;;;;;;;5227220;28;20187;-75
2023/05/02 05:29:52;;;;;;;4.47;1.40;;;;;;;;;;5227325;28;20026;-74
2023/05/02 05:32:23;;;;;;;9.50;2.20;;;;;;;;;;5226637;28;20942;-75
2023/05/02 05:34:54;;;;;;;9.83;2.30;;;;;;;;;;5226533;28;20026;-74
2023/05/02 05:37:26;;;;;;;6.47;1.90;;;;;;;;;;5226234;28;20492;-75
2023/05/02 05:39:58;;;;;;;8.43;2.07;;;;;;;;;;5227382;28;20030;-75
2023/05/02 05:42:29;;;;;;;7.53;1.80;;;;;;;;;;5226948;28;20041;-75
2023/05/02 05:45:00;;;;;;;4.67;1.30;;;;;;;;;;5225464;27;20090;-75
2023/05/02 05:47:31;;;;;;;3.93;1.70;;;;;;;;;;5227122;28;20503;-75
2023/05/02 05:50:03;;;;;;;7.77;2.60;;;;;;;;;;5225541;28;20429;-75
2023/05/02 05:52:36;;;;;;;8.97;2.83;;;;;;;;;;5225983;28;20081;-75
2023/05/02 05:55:07;;;;;;;6.73;2.17;;;;;;;;;;5227122;28;20109;-74
2023/05/02 05:57:39;;;;;;;5.70;1.67;;;;;;;;;;5225974;28;20074;-74
2023/05/02 06:00:10;;;;;;;5.23;1.40;;;;;;;;;;5226787;28;20021;-74
2023/05/02 06:02:41;;;;;;;11.13;1.93;;;;;;;;;;5226767;28;20026;-75
2023/05/02 06:05:13;;;;;;;6.63;1.70;;;;;;;;;;5225159;28;20500;-74
2023/05/02 06:07:44;;;;;;;5.13;1.90;;;;;;;;;;5226242;28;20041;-75
2023/05/02 06:10:15;;;;;;;7.37;3.07;;;;;;;;;;5226310;28;20029;-75
2023/05/02 06:12:46;;;;;;;7.73;2.00;;;;;;;;;;5226649;28;20035;-75
2023/05/02 06:15:18;;;;;;;8.63;2.17;;;;;;;;;;5224628;28;20081;-75
2023/05/02 06:17:50;;;;;;;5.83;2.00;;;;;;;;;;5225898;28;20029;-74
2023/05/02 06:20:21;;;;;;;6.00;1.53;;;;;;;;;;5225201;28;20115;-74
2023/05/02 06:22:52;;;;;;;5.20;2.10;;;;;;;;;;5225822;28;20487;-74
2023/05/02 06:25:23;;;;;;;8.77;1.90;;;;;;;;;;5226169;28;20108;-75
2023/05/02 06:27:55;;;;;;;9.27;2.20;;;;;;;;;;5226322;28;20485;-75
2023/05/02 06:30:26;;;;;;;9.23;2.13;;;;;;;;;;5225925;28;20041;-75
2023/05/02 06:32:57;;;;;;;5.37;1.97;;;;;;;;;;5226201;28;20077;-74
2023/05/02 06:35:28;;;;;;;11.53;3.07;;;;;;;;;;5224980;28;20029;-76
2023/05/02 06:37:59;;;;;;;6.40;2.27;;;;;;;;;;5226128;28;20512;-73
2023/05/02 06:40:30;;;;;;;8.93;2.33;;;;;;;;;;5226235;28;20039;-74
2023/05/02 06:43:02;;;;;;;8.60;2.03;;;;;;;;;;5225598;28;20017;-74
2023/05/02 06:45:33;;;;;;;6.80;1.70;;;;;;;;;;5225626;28;20025;-75
2023/05/02 06:48:04;;;;;;;14.83;2.63;;;;;;;;;;5226427;28;20048;-74
2023/05/02 06:50:36;;;;;;;8.93;2.10;;;;;;;;;;5224947;28;20096;-74
2023/05/02 06:53:07;;;;;;;10.73;2.73;;;;;;;;;;5226464;28;20017;-75
2023/05/02 06:55:38;;;;;;;8.60;2.50;;;;;;;;;;5225808;28;20022;-74
2023/05/02 06:58:10;;;;;;;10.20;3.00;;;;;;;;;;5224431;28;20029;-74
2023/05/02 07:00:41;;;;;;;12.03;2.10;;;;;;;;;;5225891;27;20026;-75
2023/05/02 07:03:12;;;;;;;11.83;2.23;;;;;;;;;;5226235;28;20025;-74
2023/05/02 07:05:43;;;;;;;6.50;2.30;;;;;;;;;;5227416;28;20014;-76
2023/05/02 07:08:15;;;;;;;8.53;2.53;;;;;;;;;;5229753;28;20027;-74
2023/05/02 07:10:46;;;;;;;12.40;2.70;;;;;;;;;;5228889;28;20362;-74
2023/05/02 07:13:17;;;;;;;10.27;2.33;;;;;;;;;;5229314;28;20531;-74
2023/05/02 07:15:48;;;;;;;8.33;2.60;;;;;;;;;;5229091;28;20381;-73
2023/05/02 07:18:20;;;;;;;8.30;2.77;;;;;;;;;;5229108;28;20485;-74
2023/05/02 07:20:51;;;;;;;5.80;1.83;;;;;;;;;;5228188;28;20361;-74
2023/05/02 07:23:22;;;;;;;12.53;2.70;;;;;;;;;;5228221;28;20288;-74
2023/05/02 07:25:53;;;;;;;8.80;2.57;;;;;;;;;;5226515;28;20009;-75
2023/05/02 07:28:25;;;;;;;10.27;3.07;;;;;;;;;;5227776;28;20357;-74
2023/05/02 07:30:56;;;;;;;12.20;2.40;;;;;;;;;;5228661;28;20028;-74
2023/05/02 07:33:28;;;;;;;8.63;2.33;;;;;;;;;;5228535;28;20046;-74
2023/05/02 07:36:00;;;;;;;5.93;2.20;;;;;;;;;;5228172;28;20493;-74
2023/05/02 07:38:32;;;;;;;11.83;3.13;;;;;;;;;;5227560;27;20026;-74
2023/05/02 07:41:03;;;;;;;12.97;2.80;;;;;;;;;;5228975;28;20021;-75
2023/05/02 07:43:34;;;;;;;11.20;3.50;;;;;;;;;;5226903;28;20022;-75
2023/05/02 07:46:05;;;;;;;12.73;2.60;;;;;;;;;;5229393;28;20025;-75
2023/05/02 07:48:36;;;;;;;8.60;2.43;;;;;;;;;;5228677;28;20026;-77
2023/05/02 07:51:09;;;;;;;7.77;2.93;;;;;;;;;;5228018;28;20017;-74
2023/05/02 07:53:40;;;;;;;11.20;2.87;;;;;;;;;;5228610;28;20030;-75
2023/05/02 07:56:11;;;;;;;8.27;2.80;;;;;;;;;;5227980;28;20017;-75
2023/05/02 07:58:43;;;;;;;10.30;3.57;;;;;;;;;;5227671;28;20017;-74
2023/05/02 08:01:14;;;;;;;13.83;3.23;;;;;;;;;;5226974;28;20021;-75
2023/05/02 08:03:45;;;;;;;9.83;2.80;;;;;;;;;;5226146;28;20018;-74
2023/05/02 08:06:16;;;;;;;16.77;4.40;;;;;;;;;;5228701;28;20017;-74
2023/05/02 08:08:48;;;;;;;13.50;3.03;;;;;;;;;;5226656;28;20085;-74
2023/05/02 08:11:21;;;;;;;11.47;3.10;;;;;;;;;;5228414;28;20462;-75
2023/05/02 08:13:52;;;;;;;10.00;2.37;;;;;;;;;;5227457;28;20110;-75
2023/05/02 08:16:23;;;;;;;9.40;2.60;;;;;;;;;;5227816;28;20064;-74
2023/05/02 08:18:55;;;;;;;13.13;2.70;;;;;;;;;;5227842;28;20428;-75
2023/05/02 08:21:26;;;;;;;13.83;2.80;;;;;;;;;;5227713;28;20029;-75
2023/05/02 08:23:58;;;;;;;9.23;2.57;;;;;;;;;;5226903;28;20026;-75
2023/05/02 08:26:29;;;;;;;9.60;3.83;;;;;;;;;;5228270;28;20018;-75
2023/05/02 08:29:02;;;;;;;13.07;2.73;;;;;;;;;;5225879;28;20022;-75
2023/05/02 08:31:33;;;;;;;11.20;2.63;;;;;;;;;;5207673;28;20058;-75
2023/05/02 08:34:04;;;;;;;8.97;2.83;;;;;;;;;;5207012;28;20079;-75
2023/05/02 08:36:36;;;;;;;11.60;2.37;;;;;;;;;;5207106;28;20026;-75
2023/05/02 08:39:08;;;;;;;11.37;3.13;;;;;;;;;;5207556;28;20547;-75
2023/05/02 08:41:39;;;;;;;13.50;2.97;;;;;;;;;;5207082;28;20037;-75
2023/05/02 08:44:10;;;;;;;7.50;2.87;;;;;;;;;;5207340;28;20159;-74
2023/05/02 08:46:42;;;;;;;15.17;3.97;;;;;;;;;;5220673;28;20412;-75
2023/05/02 08:49:14;;;;;;;9.10;2.50;;;;;;;;;;5225713;27;20029;-75
2023/05/02 08:51:48;;;;;;;9.70;2.60;;;;;;;;;;5228213;28;20362;-73
2023/05/02 08:54:20;;;;;;;12.95;3.20;;;;;;;;;;5227093;28;20113;-74
2023/05/02 08:56:55;;;;;;;13.57;2.77;;;;;;;;;;5226662;28;20098;-75
2023/05/02 08:59:26;;;;;;;12.33;3.83;;;;;;;;;;5226199;27;20037;-74
2023/05/02 09:01:59;;;;;;;11.67;2.23;;;;;;;;;;5226164;27;20416;-74
2023/05/02 09:04:33;;;;;;;6.97;2.00;;;;;;;;;;5226837;28;20408;-73
2023/05/02 09:07:05;;;;;;;8.85;2.20;;;;;;;;;;5227122;28;20343;-73
2023/05/02 09:09:36;;;;;;;10.67;2.53;;;;;;;;;;5227608;28;20097;-73
2023/05/02 09:12:07;;;;;;;6.93;2.67;;;;;;;;;;5227897;28;20056;-74
2023/05/02 09:14:38;;;;;;;8.17;2.27;;;;;;;;;;5226747;28;20029;-74
2023/05/02 09:17:10;;;;;;;8.03;2.47;;;;;;;;;;5227634;28;20113;-74
2023/05/02 09:19:42;;;;;;;8.40;2.77;;;;;;;;;;5225975;28;20026;-74
2023/05/02 09:22:21;;;;;;;8.43;2.43;;;;;;;;;;5229365;28;20018;-73
2023/05/02 09:24:56;;;;;;;9.83;3.13;;;;;;;;;;5232272;28;20385;-74
2023/05/02 09:27:28;;;;;;;8.07;2.07;;;;;;;;;;5231814;28;20018;-73
2023/05/02 09:30:26;;;;;;;17.33;3.53;;;;;;;;;;5230431;28;20033;-74
2023/05/02 09:32:58;;;;;;;7.73;2.37;;;;;;;;;;5226244;27;20053;-74
2023/05/02 09:35:29;;;;;;;9.37;2.10;;;;;;;;;;5226245;28;20033;-75
2023/05/02 09:38:02;;;;;;;6.17;2.60;;;;;;;;;;5226976;28;20122;-74
2023/05/02 09:40:34;;;;;;;9.17;3.23;;;;;;;;;;5227420;28;20025;-73
2023/05/02 09:43:13;;;;;;;9.37;2.40;;;;;;;;;;5226532;28;20029;-73
2023/05/02 09:45:54;;;;;;;11.50;2.40;;;;;;;;;;5227314;28;20480;-73
2023/05/02 09:48:27;;;;;;;6.00;2.40;;;;;;;;;;5225625;28;20021;-75
2023/05/02 09:50:58;;;;;;;6.47;1.90;;;;;;;;;;5226840;28;20354;-74
2023/05/02 09:53:30;;;;;;;9.57;2.73;;;;;;;;;;5226863;28;20025;-75
2023/05/02 09:56:02;;;;;;;7.63;2.80;;;;;;;;;;5226467;28;20477;-75
2023/05/02 09:58:33;;;;;;;7.37;2.47;;;;;;;;;;5226848;28;20026;-75
2023/05/02 10:01:04;;;;;;;7.53;2.37;;;;;;;;;;5226576;28;20052;-74
2023/05/02 10:03:36;;;;;;;5.93;1.88;;;;;;;;;;5225992;28;20438;-75
2023/05/02 10:06:08;;;;;;;6.80;1.98;;;;;;;;;;5227020;28;20029;-75
2023/05/02 10:08:40;;;;;;;7.15;2.10;;;;;;;;;;5225935;28;20551;-75
2023/05/02 10:11:12;;;;;;;9.60;2.80;;;;;;;;;;5226498;28;20021;-75
2023/05/02 10:13:43;;;;;;;6.50;2.40;;;;;;;;;;5226823;28;20070;-75
2023/05/02 10:16:21;;;;;;;6.43;2.13;;;;;;;;;;5224835;28;20037;-75
2023/05/02 10:19:06;;;;;;;9.45;1.92;;;;;;;;;;5226004;28;20045;-75
2023/05/02 10:21:38;;;;;;;6.10;1.73;;;;;;;;;;5226162;28;20025;-75
2023/05/02 10:24:10;;;;;;;6.80;2.28;;;;;;;;;;5226478;28;20009;-75
2023/05/02 10:26:42;;;;;;;8.07;2.90;;;;;;;;;;5226494;28;20563;-74
2023/05/02 10:29:14;;;;;;;6.55;2.53;;;;;;;;;;5226385;28;20423;-75
2023/05/02 10:31:46;;;;;;;8.18;2.60;;;;;;;;;;5226513;28;20017;-74
2023/05/02 10:34:17;;;;;;;7.35;2.80;;;;;;;;;;5224457;28;20569;-75
2023/05/02 10:36:48;;;;;;;11.48;2.85;;;;;;;;;;5226100;28;20033;-75
2023/05/02 10:39:23;;;;;;;9.37;3.07;;;;;;;;;;5225079;28;20037;-74
2023/05/02 10:41:55;;;;;;;7.23;2.60;;;;;;;;;;5224317;28;20075;-74
2023/05/02 10:44:33;;;;;;;6.90;2.70;;;;;;;;;;5224728;28;20070;-73
2023/05/02 10:47:31;;;;;;;6.05;2.35;;;;;;;;;;5243970;28;20042;-75
2023/05/02 10:50:07;;;;;;;11.30;2.60;;;;;;;;;;5221660;28;20489;-75
2023/05/02 10:52:39;;;;;;;8.48;2.67;;;;;;;;;;5222646;28;20021;-75
2023/05/02 10:55:18;;;;;;;6.43;2.67;;;;;;;;;;5219426;28;20025;-76
2023/05/02 10:58:14;;;;;;;5.43;2.63;;;;;;;;;;5224606;28;20048;-75
2023/05/02 11:00:45;;;;;;;8.25;2.53;;;;;;;;;;5223328;28;20033;-75
2023/05/02 11:03:36;;;;;;;8.50;2.53;;;;;;;;;;5223846;28;20017;-76
2023/05/02 11:06:08;;;;;;;5.20;2.25;;;;;;;;;;5223172;28;20039;-77
2023/05/02 11:12:30;;;;;;;5.03;2.28;;;;;;;;;;5172827;28;20038;-76
2023/05/02 11:15:18;;;;;;;8.80;2.72;;;;;;;;;;5201097;28;20135;-76
2023/05/02 11:18:11;;;;;;;6.25;2.17;;;;;;;;;;5256784;28;20039;-76
2023/05/02 11:20:43;;;;;;;6.78;2.05;;;;;;;;;;5156006;28;20115;-74
2023/05/02 11:25:56;;;;;;;9.40;2.40;;;;;;;;;;5220640;28;20575;-75
2023/05/02 11:28:35;;;;;;;8.90;2.30;;;;;;;;;;5330829;27;20055;-76
2023/05/02 11:31:08;;;;;;;7.20;2.40;;;;;;;;;;5224992;28;20057;-76
2023/05/02 11:34:01;;;;;;;6.17;2.37;;;;;;;;;;5221616;28;20137;-75
2023/05/02 11:36:42;;;;;;;6.73;2.67;;;;;;;;;;5223679;28;20037;-75
2023/05/02 11:39:25;;;;;;;5.87;2.13;;;;;;;;;;5221708;28;20116;-75
2023/05/02 11:42:29;;;;;;;8.30;2.30;;;;;;;;;;5224147;27;20042;-74
2023/05/02 11:45:32;;;;;;;9.60;2.80;;;;;;;;;;5251883;28;20148;-74
2023/05/02 11:48:13;;;;;;;6.57;2.37;;;;;;;;;;5202595;28;20034;-74
2023/05/02 11:51:05;;;;;;;6.80;2.37;;;;;;;;;;5223674;28;20491;-74
2023/05/02 11:57:17;;;;;;;6.90;2.67;;;;;;;;;;5203957;28;20037;-75
2023/05/02 11:59:57;;;;;;;7.33;2.30;;;;;;;;;;5229925;27;20080;-75
2023/05/02 12:03:22;;;;;;;;;;;;;;;;;;;;;
2023/05/02 12:19:21;;;;;;;5.53;1.77;;;;;;;;;;5142624;28;20074;-74
2023/05/02 12:22:12;;;;;;;8.27;2.40;;;;;;;;;;5146797;28;20032;-74
2023/05/02 12:24:43;;;;;;;9.27;2.83;;;;;;;;;;5130488;28;20038;-74
2023/05/02 12:27:15;;;;;;;4.77;2.13;;;;;;;;;;5216533;28;20038;-74
2023/05/02 12:29:49;;;;;;;7.90;2.77;;;;;;;;;;5230299;28;20036;-74
2023/05/02 12:32:44;;;;;;;6.43;2.17;;;;;;;;;;5227616;27;20452;-75
2023/05/02 12:35:46;;;;;;;;;;;;;;;;;;;;;
2023/05/02 12:38:31;;;;;;;6.73;2.13;;;;;;;;;;5206506;28;20022;-75
2023/05/02 12:41:28;;;;;;;10.88;2.42;;;;;;;;;;5205571;28;20014;-75
2023/05/02 12:47:31;;;;;;;8.77;2.47;;;;;;;;;;5266781;28;20674;-74
2023/05/02 12:50:02;;;;;;;5.07;2.07;;;;;;;;;;5206194;28;20026;-74
2023/05/02 12:52:48;;;;;;;6.07;2.13;;;;;;;;;;5206881;28;20049;-75
2023/05/02 12:55:26;;;;;;;8.23;2.43;;;;;;;;;;5205080;28;20022;-75
2023/05/02 12:58:06;;;;;;;7.20;2.10;;;;;;;;;;5207039;28;20331;-75
2023/05/02 13:00:38;;;;;;;5.40;2.13;;;;;;;;;;5204311;28;20025;-75
2023/05/02 13:03:10;;;;;;;6.73;2.23;;;;;;;;;;5204516;28;20029;-73
2023/05/02 13:05:41;;;;;;;6.83;2.20;;;;;;;;;;5205299;28;20006;-74
2023/05/02 13:08:16;;;;;;;6.40;2.13;;;;;;;;;;5205015;28;20021;-74
2023/05/02 13:10:47;;;;;;;;;;;;;;;;;;5205397;28;20022;-74
2023/05/02 13:19:37;;;;;;;7.80;2.33;;;;;;;;;;5205734;28;20065;-74
2023/05/02 13:22:08;;;;;;;6.57;2.23;;;;;;;;;;5204896;28;20018;-74
2023/05/02 13:24:47;;;;;;;5.37;1.90;;;;;;;;;;5206559;28;20022;-74
2023/05/02 13:27:21;;;;;;;8.07;2.30;;;;;;;;;;5204481;28;20075;-75
2023/05/02 13:29:52;;;;;;;6.45;2.05;;;;;;;;;;5204818;28;20354;-74
2023/05/02 13:32:24;;;;;;;6.77;2.60;;;;;;;;;;5203981;28;20033;-75
2023/05/02 13:34:58;;;;;;;6.60;2.10;;;;;;;;;;5204010;28;20128;-74
2023/05/02 13:37:33;;;;;;;;;;;;;;;;;;5308051;27;20645;-73
2023/05/02 13:40:08;;;;;;;6.75;2.40;;;;;;;;;;5204805;28;20365;-74
2023/05/02 13:42:45;;;;;;;6.97;2.20;;;;;;;;;;5205667;28;20029;-74
2023/05/02 13:45:21;;;;;;;8.53;2.67;;;;;;;;;;5204130;28;20030;-74
2023/05/02 13:47:58;;;;;;;5.60;1.63;;;;;;;;;;5203766;28;20026;-75
2023/05/02 13:50:29;;;;;;;11.27;2.50;;;;;;;;;;5206101;28;20224;-75
2023/05/02 13:53:00;;;;;;;8.60;2.10;;;;;;;;;;5204659;28;20055;-72
2023/05/02 13:55:32;;;;;;;7.67;1.93;;;;;;;;;;5204390;28;20089;-75
2023/05/02 13:58:20;;;;;;;11.83;3.13;;;;;;;;;;5205851;28;20216;-73
2023/05/02 14:00:52;;;;;;;9.57;2.10;;;;;;;;;;5204386;28;20217;-74
2023/05/02 14:03:28;;;;;;;4.17;2.07;;;;;;;;;;5203116;28;20477;-74
2023/05/02 14:06:00;;;;;;;6.90;2.90;;;;;;;;;;5206037;28;20053;-74
2023/05/02 14:08:44;;;;;;;7.03;2.40;;;;;;;;;;5203690;28;20056;-74
2023/05/02 14:11:18;;;;;;;8.10;2.33;;;;;;;;;;5202906;28;20428;-73
2023/05/02 14:14:02;;;;;;;7.30;2.45;;;;;;;;;;5204110;28;20021;-74
2023/05/02 14:16:53;;;;;;;;;;;;;;;;;;;;;
2023/05/02 14:19:33;;;;;;;5.20;1.87;;;;;;;;;;5204644;28;20040;-74
2023/05/02 14:22:22;;;;;;;8.73;2.67;;;;;;;;;;5203916;28;20018;-73
2023/05/02 14:24:54;;;;;;;9.30;2.33;;;;;;;;;;5203933;28;20030;-75
2023/05/02 14:27:25;;;;;;;6.20;2.80;;;;;;;;;;5203015;28;20049;-75
2023/05/02 14:29:57;;;;;;;9.03;2.83;;;;;;;;;;5212134;28;20006;-74
2023/05/02 14:46:43;;;;;;;6.27;2.40;;;;;;;;;;5182908;28;20304;-74
2023/05/02 14:53:02;;;;;;;7.37;2.80;;;;;;;;;;5190580;28;20038;-74
2023/05/02 14:55:57;;;;;;;9.87;2.70;;;;;;;;;;5209414;28;20047;-74
2023/05/02 14:58:31;;;;;;;;;;;;;;;;;;5264009;28;20116;-75
2023/05/02 15:06:46;;;;;;;9.33;3.60;;;;;;;;;;5146285;28;20044;-73
2023/05/02 15:09:18;;;;;;;6.97;2.40;;;;;;;;;;5145920;28;20114;-73
2023/05/02 15:11:49;;;;;;;9.60;3.03;;;;;;;;;;5162102;28;20164;-73
2023/05/02 15:14:20;;;;;;;7.97;2.73;;;;;;;;;;5145833;28;20023;-72
2023/05/02 15:16:51;;;;;;;12.60;3.10;;;;;;;;;;5165335;28;20031;-73
2023/05/02 15:19:24;;;;;;;8.37;3.10;;;;;;;;;;5154354;28;20022;-72
2023/05/02 15:21:56;;;;;;;9.23;3.07;;;;;;;;;;5164430;28;20038;-73
2023/05/02 15:24:27;;;;;;;9.53;2.80;;;;;;;;;;5168647;28;20054;-74
2023/05/02 15:26:58;;;;;;;7.90;3.17;;;;;;;;;;5170109;28;20058;-73
2023/05/02 15:29:29;;;;;;;10.57;3.33;;;;;;;;;;5169404;28;20026;-73
2023/05/02 15:32:01;;;;;;;10.23;3.53;;;;;;;;;;5171538;28;20071;-73
2023/05/02 15:34:32;;;;;;;7.27;2.60;;;;;;;;;;5219907;28;20022;-76
2023/05/02 15:37:03;;;;;;;11.07;3.70;;;;;;;;;;5162718;28;20031;-74
2023/05/02 15:39:34;;;;;;;11.43;3.33;;;;;;;;;;5168296;28;20033;-75
2023/05/02 15:42:05;;;;;;;10.67;3.67;;;;;;;;;;5149776;28;20035;-75
2023/05/02 15:44:37;;;;;;;8.80;3.20;;;;;;;;;;5149818;29;20015;-73
2023/05/02 15:47:08;;;;;;;8.37;3.50;;;;;;;;;;5149780;28;20512;-74
2023/05/02 15:49:39;;;;;;;7.80;3.30;;;;;;;;;;5148718;28;20023;-74
2023/05/02 15:52:10;;;;;;;12.77;3.30;;;;;;;;;;5158148;28;20432;-75
2023/05/02 15:54:41;;;;;;;10.13;3.70;;;;;;;;;;5151614;28;20038;-75
2023/05/02 15:57:13;;;;;;;9.17;3.83;;;;;;;;;;5167169;28;20027;-73
2023/05/02 15:59:44;;;;;;;11.73;3.60;;;;;;;;;;5169490;28;20053;-74
2023/05/02 16:02:15;;;;;;;11.80;3.70;;;;;;;;;;5153911;28;20027;-74
2023/05/02 16:04:46;;;;;;;9.03;3.57;;;;;;;;;;5153137;28;20482;-73
2023/05/02 16:07:17;;;;;;;6.53;3.27;;;;;;;;;;5168659;28;20038;-73
2023/05/02 16:09:49;;;;;;;11.68;3.63;;;;;;;;;;5169189;28;20113;-81
2023/05/02 16:12:20;;;;;;;8.93;3.40;;;;;;;;;;5169180;28;20035;-75
2023/05/02 16:14:51;;;;;;;11.10;3.60;;;;;;;;;;5157888;28;20110;-75